sensor_id;sensor_type;location;lat;lon;timestamp;P1;durP1;ratioP1;P2;durP2;ratioP2
62256;SDS011;48240;52.962;5.790;2023-03-14T04:49:35;6.88;;;1.60;;
62256;SDS011;48240;52.962;5.790;2023-03-14T04:52:02;9.05;;;1.60;;
62256;SDS011;48240;52.962;5.790;2023-03-14T04:54:28;5.80;;;1.45;;
62256;SDS011;48240;52.962;5.790;2023-03-14T04:56:54;6.72;;;1.60;;
62256;SDS011;48240;52.962;5.790;2023-03-14T04:59:20;7.55;;;1.77;;
62256;SDS011;48240;52.962;5.790;2023-03-14T05:01:46;8.77;;;1.70;;
62256;SDS011;48240;52.962;5.790;2023-03-14T05:04:13;12.88;;;2.28;;
62256;SDS011;48240;52.962;5.790;2023-03-14T05:06:39;8.07;;;1.80;;
62256;SDS011;48240;52.962;5.790;2023-03-14T05:09:07;5.75;;;1.33;;
62256;SDS011;48240;52.962;5.790;2023-03-14T05:11:33;7.93;;;1.60;;
62256;SDS011;48240;52.962;5.790;2023-03-14T05:13:59;8.15;;;1.70;;
62256;SDS011;48240;52.962;5.790;2023-03-14T05:16:25;8.23;;;1.75;;
62256;SDS011;48240;52.962;5.790;2023-03-14T05:18:51;8.32;;;1.63;;
62256;SDS011;48240;52.962;5.790;2023-03-14T05:21:17;7.47;;;1.75;;
62256;SDS011;48240;52.962;5.790;2023-03-14T05:23:43;4.80;;;1.40;;
62256;SDS011;48240;52.962;5.790;2023-03-14T05:26:10;8.52;;;1.70;;
62256;SDS011;48240;52.962;5.790;2023-03-14T05:28:36;9.32;;;2.05;;
62256;SDS011;48240;52.962;5.790;2023-03-14T05:31:05;8.65;;;1.80;;
62256;SDS011;48240;52.962;5.790;2023-03-14T05:33:31;7.03;;;1.63;;
62256;SDS011;48240;52.962;5.790;2023-03-14T05:35:57;6.80;;;1.95;;
62256;SDS011;48240;52.962;5.790;2023-03-14T05:38:23;7.07;;;1.52;;
62256;SDS011;48240;52.962;5.790;2023-03-14T05:40:50;5.05;;;1.33;;
62256;SDS011;48240;52.962;5.790;2023-03-14T05:43:16;7.32;;;1.80;;
62256;SDS011;48240;52.962;5.790;2023-03-14T05:45:42;6.03;;;1.70;;
62256;SDS011;48240;52.962;5.790;2023-03-14T05:48:08;9.13;;;2.03;;
62256;SDS011;48240;52.962;5.790;2023-03-14T05:50:34;8.20;;;1.90;;
62256;SDS011;48240;52.962;5.790;2023-03-14T05:53:01;5.90;;;1.75;;
62256;SDS011;48240;52.962;5.790;2023-03-14T05:55:27;6.68;;;1.50;;
62256;SDS011;48240;52.962;5.790;2023-03-14T05:57:53;5.93;;;1.27;;
62256;SDS011;48240;52.962;5.790;2023-03-14T06:00:20;6.70;;;1.45;;
62256;SDS011;48240;52.962;5.790;2023-03-14T06:02:46;2.83;;;1.23;;
62256;SDS011;48240;52.962;5.790;2023-03-14T06:05:12;3.58;;;1.52;;
62256;SDS011;48240;52.962;5.790;2023-03-14T06:07:38;4.88;;;1.50;;
62256;SDS011;48240;52.962;5.790;2023-03-14T06:10:05;6.68;;;1.42;;
62256;SDS011;48240;52.962;5.790;2023-03-14T06:12:31;5.45;;;1.60;;
62256;SDS011;48240;52.962;5.790;2023-03-14T06:14:57;5.78;;;1.40;;
62256;SDS011;48240;52.962;5.790;2023-03-14T06:17:23;5.93;;;1.48;;
62256;SDS011;48240;52.962;5.790;2023-03-14T06:19:49;5.10;;;1.40;;
62256;SDS011;48240;52.962;5.790;2023-03-14T06:22:15;4.75;;;1.20;;
62256;SDS011;48240;52.962;5.790;2023-03-14T06:24:41;4.47;;;1.20;;
62256;SDS011;48240;52.962;5.790;2023-03-14T06:27:07;6.15;;;1.20;;
62256;SDS011;48240;52.962;5.790;2023-03-14T06:29:33;4.35;;;1.10;;
62256;SDS011;48240;52.962;5.790;2023-03-14T06:32:00;5.38;;;1.35;;
62256;SDS011;48240;52.962;5.790;2023-03-14T06:34:26;5.15;;;1.10;;
62256;SDS011;48240;52.962;5.790;2023-03-14T06:36:52;3.95;;;0.90;;
62256;SDS011;48240;52.962;5.790;2023-03-14T06:39:18;4.68;;;1.00;;
62256;SDS011;48240;52.962;5.790;2023-03-14T06:41:44;6.78;;;1.20;;
62256;SDS011;48240;52.962;5.790;2023-03-14T06:44:10;5.28;;;1.10;;
62256;SDS011;48240;52.962;5.790;2023-03-14T06:46:36;5.22;;;1.20;;
62256;SDS011;48240;52.962;5.790;2023-03-14T06:49:02;2.45;;;0.80;;
62256;SDS011;48240;52.962;5.790;2023-03-14T06:51:28;5.75;;;1.00;;
62256;SDS011;48240;52.962;5.790;2023-03-14T06:53:55;7.13;;;1.20;;
62256;SDS011;48240;52.962;5.790;2023-03-14T06:56:21;4.07;;;1.00;;
62256;SDS011;48240;52.962;5.790;2023-03-14T06:58:47;5.22;;;1.23;;
62256;SDS011;48240;52.962;5.790;2023-03-14T07:01:17;3.50;;;0.90;;
62256;SDS011;48240;52.962;5.790;2023-03-14T07:03:46;7.18;;;0.95;;
62256;SDS011;48240;52.962;5.790;2023-03-14T07:06:12;3.67;;;0.80;;
62256;SDS011;48240;52.962;5.790;2023-03-14T07:08:38;5.15;;;1.02;;
62256;SDS011;48240;52.962;5.790;2023-03-14T07:11:04;4.30;;;1.13;;
62256;SDS011;48240;52.962;5.790;2023-03-14T07:13:30;4.07;;;0.90;;
62256;SDS011;48240;52.962;5.790;2023-03-14T07:15:56;4.30;;;0.80;;
62256;SDS011;48240;52.962;5.790;2023-03-14T07:18:23;2.30;;;0.73;;
62256;SDS011;48240;52.962;5.790;2023-03-14T07:20:49;3.40;;;0.85;;
62256;SDS011;48240;52.962;5.790;2023-03-14T07:23:15;3.85;;;1.00;;
62256;SDS011;48240;52.962;5.790;2023-03-14T07:25:41;3.38;;;1.23;;
62256;SDS011;48240;52.962;5.790;2023-03-14T07:28:07;3.40;;;0.90;;
62256;SDS011;48240;52.962;5.790;2023-03-14T07:30:33;5.22;;;0.85;;
62256;SDS011;48240;52.962;5.790;2023-03-14T07:33:00;3.90;;;0.88;;
62256;SDS011;48240;52.962;5.790;2023-03-14T07:35:26;5.13;;;0.88;;
62256;SDS011;48240;52.962;5.790;2023-03-14T07:37:52;3.28;;;0.70;;
62256;SDS011;48240;52.962;5.790;2023-03-14T07:40:18;4.85;;;0.80;;
62256;SDS011;48240;52.962;5.790;2023-03-14T07:42:44;3.45;;;0.77;;
62256;SDS011;48240;52.962;5.790;2023-03-14T07:45:10;2.92;;;0.70;;
62256;SDS011;48240;52.962;5.790;2023-03-14T07:47:36;4.18;;;0.60;;
62256;SDS011;48240;52.962;5.790;2023-03-14T07:50:03;2.67;;;0.60;;
62256;SDS011;48240;52.962;5.790;2023-03-14T07:52:29;4.10;;;0.80;;
62256;SDS011;48240;52.962;5.790;2023-03-14T07:54:56;5.05;;;0.88;;
62256;SDS011;48240;52.962;5.790;2023-03-14T07:57:22;3.95;;;1.05;;
62256;SDS011;48240;52.962;5.790;2023-03-14T07:59:49;3.17;;;0.70;;
62256;SDS011;48240;52.962;5.790;2023-03-14T08:02:15;2.60;;;0.73;;
62256;SDS011;48240;52.962;5.790;2023-03-14T08:04:43;3.78;;;0.82;;
62256;SDS011;48240;52.962;5.790;2023-03-14T08:07:09;3.30;;;0.57;;
62256;SDS011;48240;52.962;5.790;2023-03-14T08:09:35;3.95;;;0.90;;
62256;SDS011;48240;52.962;5.790;2023-03-14T08:12:01;4.00;;;0.70;;
62256;SDS011;48240;52.962;5.790;2023-03-14T08:14:27;3.38;;;0.60;;
62256;SDS011;48240;52.962;5.790;2023-03-14T08:16:54;3.08;;;0.70;;
62256;SDS011;48240;52.962;5.790;2023-03-14T08:19:20;4.45;;;0.90;;
62256;SDS011;48240;52.962;5.790;2023-03-14T08:21:46;5.65;;;1.08;;
62256;SDS011;48240;52.962;5.790;2023-03-14T08:24:12;4.75;;;0.90;;
62256;SDS011;48240;52.962;5.790;2023-03-14T08:26:38;4.13;;;0.70;;
62256;SDS011;48240;52.962;5.790;2023-03-14T08:29:05;4.30;;;0.80;;
62256;SDS011;48240;52.962;5.790;2023-03-14T08:31:32;7.15;;;0.90;;
62256;SDS011;48240;52.962;5.790;2023-03-14T08:33:58;4.05;;;0.75;;
62256;SDS011;48240;52.962;5.790;2023-03-14T08:36:25;4.45;;;0.95;;
62256;SDS011;48240;52.962;5.790;2023-03-14T08:38:51;4.32;;;0.85;;
62256;SDS011;48240;52.962;5.790;2023-03-14T08:41:17;4.10;;;1.00;;
62256;SDS011;48240;52.962;5.790;2023-03-14T08:43:43;5.95;;;0.93;;
62256;SDS011;48240;52.962;5.790;2023-03-14T08:46:09;4.18;;;1.15;;
62256;SDS011;48240;52.962;5.790;2023-03-14T08:48:35;4.57;;;0.90;;
62256;SDS011;48240;52.962;5.790;2023-03-14T08:51:08;4.88;;;0.90;;
62256;SDS011;48240;52.962;5.790;2023-03-14T08:53:36;4.57;;;0.80;;
62256;SDS011;48240;52.962;5.790;2023-03-14T08:56:02;4.35;;;0.95;;
62256;SDS011;48240;52.962;5.790;2023-03-14T08:58:30;5.15;;;1.00;;
62256;SDS011;48240;52.962;5.790;2023-03-14T09:00:56;3.78;;;1.13;;
62256;SDS011;48240;52.962;5.790;2023-03-14T09:03:23;5.43;;;0.90;;
62256;SDS011;48240;52.962;5.790;2023-03-14T09:05:52;4.25;;;1.00;;
62256;SDS011;48240;52.962;5.790;2023-03-14T09:08:18;4.22;;;0.95;;
62256;SDS011;48240;52.962;5.790;2023-03-14T09:10:44;5.45;;;0.90;;
62256;SDS011;48240;52.962;5.790;2023-03-14T09:13:10;6.60;;;1.00;;
62256;SDS011;48240;52.962;5.790;2023-03-14T09:15:36;8.45;;;1.30;;
62256;SDS011;48240;52.962;5.790;2023-03-14T09:18:02;6.13;;;1.15;;
62256;SDS011;48240;52.962;5.790;2023-03-14T09:20:28;4.35;;;1.00;;
62256;SDS011;48240;52.962;5.790;2023-03-14T09:22:55;5.82;;;1.17;;
62256;SDS011;48240;52.962;5.790;2023-03-14T09:25:21;7.43;;;0.90;;
62256;SDS011;48240;52.962;5.790;2023-03-14T09:27:47;6.68;;;1.35;;
62256;SDS011;48240;52.962;5.790;2023-03-14T09:30:13;6.63;;;1.30;;
62256;SDS011;48240;52.962;5.790;2023-03-14T09:32:39;5.18;;;1.33;;
62256;SDS011;48240;52.962;5.790;2023-03-14T09:35:05;7.07;;;1.20;;
62256;SDS011;48240;52.962;5.790;2023-03-14T09:37:31;5.57;;;1.40;;
62256;SDS011;48240;52.962;5.790;2023-03-14T09:39:57;4.70;;;1.25;;
62256;SDS011;48240;52.962;5.790;2023-03-14T09:42:25;8.57;;;1.25;;
62256;SDS011;48240;52.962;5.790;2023-03-14T09:45:03;10.43;;;1.50;;
62256;SDS011;48240;52.962;5.790;2023-03-14T09:47:33;6.13;;;1.35;;
62256;SDS011;48240;52.962;5.790;2023-03-14T09:50:00;6.93;;;1.60;;
62256;SDS011;48240;52.962;5.790;2023-03-14T09:52:30;6.88;;;1.58;;
62256;SDS011;48240;52.962;5.790;2023-03-14T09:54:57;8.45;;;1.20;;
62256;SDS011;48240;52.962;5.790;2023-03-14T09:57:24;10.30;;;1.70;;
62256;SDS011;48240;52.962;5.790;2023-03-14T09:59:52;9.88;;;1.15;;
62256;SDS011;48240;52.962;5.790;2023-03-14T10:02:23;9.00;;;1.52;;
62256;SDS011;48240;52.962;5.790;2023-03-14T10:04:50;9.30;;;1.83;;
62256;SDS011;48240;52.962;5.790;2023-03-14T10:07:37;7.80;;;1.42;;
62256;SDS011;48240;52.962;5.790;2023-03-14T10:10:08;9.77;;;1.63;;
62256;SDS011;48240;52.962;5.790;2023-03-14T10:12:35;8.02;;;1.83;;
62256;SDS011;48240;52.962;5.790;2023-03-14T10:15:06;6.95;;;1.35;;
62256;SDS011;48240;52.962;5.790;2023-03-14T10:17:40;13.95;;;1.55;;
62256;SDS011;48240;52.962;5.790;2023-03-14T10:20:06;7.07;;;1.48;;
62256;SDS011;48240;52.962;5.790;2023-03-14T10:22:35;5.82;;;1.30;;
62256;SDS011;48240;52.962;5.790;2023-03-14T10:25:03;9.02;;;1.70;;
62256;SDS011;48240;52.962;5.790;2023-03-14T10:27:31;9.80;;;1.77;;
62256;SDS011;48240;52.962;5.790;2023-03-14T10:30:01;6.78;;;1.40;;
62256;SDS011;48240;52.962;5.790;2023-03-14T10:32:29;8.10;;;1.88;;
62256;SDS011;48240;52.962;5.790;2023-03-14T10:35:05;12.57;;;1.57;;
62256;SDS011;48240;52.962;5.790;2023-03-14T10:37:32;9.20;;;1.88;;
62256;SDS011;48240;52.962;5.790;2023-03-14T10:39:59;9.90;;;1.42;;
62256;SDS011;48240;52.962;5.790;2023-03-14T10:42:31;7.40;;;1.30;;
62256;SDS011;48240;52.962;5.790;2023-03-14T10:45:06;9.55;;;1.60;;
62256;SDS011;48240;52.962;5.790;2023-03-14T10:47:33;4.88;;;1.30;;
62256;SDS011;48240;52.962;5.790;2023-03-14T10:52:47;7.35;;;1.52;;
62256;SDS011;48240;52.962;5.790;2023-03-14T10:55:13;8.43;;;1.55;;
62256;SDS011;48240;52.962;5.790;2023-03-14T10:57:41;8.52;;;1.75;;
62256;SDS011;48240;52.962;5.790;2023-03-14T11:00:17;7.85;;;1.30;;
62256;SDS011;48240;52.962;5.790;2023-03-14T11:07:56;7.90;;;1.40;;
62256;SDS011;48240;52.962;5.790;2023-03-14T11:10:26;5.57;;;1.15;;
62256;SDS011;48240;52.962;5.790;2023-03-14T11:12:57;9.05;;;1.38;;
62256;SDS011;48240;52.962;5.790;2023-03-14T11:15:31;8.40;;;1.30;;
62256;SDS011;48240;52.962;5.790;2023-03-14T11:18:15;7.00;;;1.30;;
62256;SDS011;48240;52.962;5.790;2023-03-14T11:23:22;8.30;;;1.50;;
62256;SDS011;48240;52.962;5.790;2023-03-14T11:28:17;9.00;;;1.80;;
62256;SDS011;48240;52.962;5.790;2023-03-14T11:40:50;7.32;;;1.10;;
62256;SDS011;48240;52.962;5.790;2023-03-14T11:43:20;5.50;;;1.25;;
62256;SDS011;48240;52.962;5.790;2023-03-14T11:45:46;5.93;;;1.38;;
62256;SDS011;48240;52.962;5.790;2023-03-14T11:48:34;8.45;;;1.40;;
62256;SDS011;48240;52.962;5.790;2023-03-14T11:51:02;7.18;;;1.45;;
62256;SDS011;48240;52.962;5.790;2023-03-14T11:53:39;4.30;;;1.00;;
62256;SDS011;48240;52.962;5.790;2023-03-14T11:58:55;6.57;;;1.10;;
62256;SDS011;48240;52.962;5.790;2023-03-14T12:01:24;6.90;;;1.15;;
62256;SDS011;48240;52.962;5.790;2023-03-14T12:03:56;5.70;;;1.33;;
62256;SDS011;48240;52.962;5.790;2023-03-14T12:06:26;4.43;;;1.20;;
62256;SDS011;48240;52.962;5.790;2023-03-14T12:08:57;6.90;;;1.15;;
62256;SDS011;48240;52.962;5.790;2023-03-14T12:13:50;7.55;;;1.38;;
62256;SDS011;48240;52.962;5.790;2023-03-14T12:18:49;5.18;;;1.00;;
62256;SDS011;48240;52.962;5.790;2023-03-14T12:21:16;7.10;;;1.13;;
62256;SDS011;48240;52.962;5.790;2023-03-14T12:23:48;4.30;;;1.10;;
62256;SDS011;48240;52.962;5.790;2023-03-14T12:26:16;5.32;;;1.10;;
62256;SDS011;48240;52.962;5.790;2023-03-14T12:28:44;4.65;;;1.00;;
62256;SDS011;48240;52.962;5.790;2023-03-14T12:42:05;7.63;;;1.30;;
62256;SDS011;48240;52.962;5.790;2023-03-14T12:44:44;8.00;;;1.30;;
62256;SDS011;48240;52.962;5.790;2023-03-14T12:47:40;5.05;;;0.85;;
62256;SDS011;48240;52.962;5.790;2023-03-14T12:50:00;6.40;;;0.95;;
62256;SDS011;48240;52.962;5.790;2023-03-14T13:00:41;6.75;;;1.00;;
62256;SDS011;48240;52.962;5.790;2023-03-14T13:05:57;6.85;;;1.35;;
62256;SDS011;48240;52.962;5.790;2023-03-14T13:08:35;7.07;;;1.33;;
62256;SDS011;48240;52.962;5.790;2023-03-14T13:11:02;11.85;;;1.15;;
62256;SDS011;48240;52.962;5.790;2023-03-14T13:13:29;7.07;;;1.00;;
62256;SDS011;48240;52.962;5.790;2023-03-14T13:15:59;6.13;;;1.20;;
62256;SDS011;48240;52.962;5.790;2023-03-14T13:18:35;6.10;;;1.20;;
62256;SDS011;48240;52.962;5.790;2023-03-14T13:23:32;5.80;;;0.95;;
62256;SDS011;48240;52.962;5.790;2023-03-14T13:25:59;8.98;;;0.93;;
62256;SDS011;48240;52.962;5.790;2023-03-14T13:28:26;9.07;;;0.98;;
62256;SDS011;48240;52.962;5.790;2023-03-14T13:30:57;9.32;;;1.42;;
62256;SDS011;48240;52.962;5.790;2023-03-14T13:33:23;5.40;;;0.95;;
62256;SDS011;48240;52.962;5.790;2023-03-14T13:38:26;5.07;;;1.00;;
62256;SDS011;48240;52.962;5.790;2023-03-14T13:40:56;5.78;;;0.82;;
62256;SDS011;48240;52.962;5.790;2023-03-14T13:43:33;7.13;;;1.08;;
62256;SDS011;48240;52.962;5.790;2023-03-14T13:46:06;11.27;;;1.20;;
62256;SDS011;48240;52.962;5.790;2023-03-14T13:48:43;7.00;;;1.17;;
62256;SDS011;48240;52.962;5.790;2023-03-14T13:51:10;7.10;;;1.10;;
62256;SDS011;48240;52.962;5.790;2023-03-14T13:53:58;5.15;;;1.00;;
62256;SDS011;48240;52.962;5.790;2023-03-14T13:56:25;5.50;;;0.88;;
62256;SDS011;48240;52.962;5.790;2023-03-14T13:58:52;4.85;;;1.00;;
62256;SDS011;48240;52.962;5.790;2023-03-14T14:01:19;6.65;;;1.00;;
62256;SDS011;48240;52.962;5.790;2023-03-14T14:03:47;4.88;;;1.23;;
62256;SDS011;48240;52.962;5.790;2023-03-14T14:09:00;5.28;;;1.08;;
62256;SDS011;48240;52.962;5.790;2023-03-14T14:11:32;8.18;;;1.15;;
62256;SDS011;48240;52.962;5.790;2023-03-14T14:14:01;8.25;;;1.13;;
62256;SDS011;48240;52.962;5.790;2023-03-14T14:16:27;4.75;;;1.13;;
62256;SDS011;48240;52.962;5.790;2023-03-14T14:18:54;6.18;;;0.88;;
62256;SDS011;48240;52.962;5.790;2023-03-14T14:21:21;3.70;;;0.85;;
62256;SDS011;48240;52.962;5.790;2023-03-14T14:23:47;6.35;;;1.20;;
62256;SDS011;48240;52.962;5.790;2023-03-14T14:26:16;5.72;;;1.35;;
62256;SDS011;48240;52.962;5.790;2023-03-14T14:28:42;5.65;;;0.90;;
62256;SDS011;48240;52.962;5.790;2023-03-14T14:33:41;5.20;;;0.98;;
62256;SDS011;48240;52.962;5.790;2023-03-14T14:36:22;4.38;;;0.98;;
62256;SDS011;48240;52.962;5.790;2023-03-14T14:38:52;6.93;;;1.30;;
62256;SDS011;48240;52.962;5.790;2023-03-14T14:41:18;4.85;;;0.90;;
62256;SDS011;48240;52.962;5.790;2023-03-14T14:43:45;6.10;;;1.08;;
62256;SDS011;48240;52.962;5.790;2023-03-14T14:46:14;5.78;;;1.00;;
62256;SDS011;48240;52.962;5.790;2023-03-14T14:48:41;3.70;;;0.95;;
62256;SDS011;48240;52.962;5.790;2023-03-14T14:51:07;7.15;;;1.10;;
62256;SDS011;48240;52.962;5.790;2023-03-14T14:53:38;4.10;;;0.90;;
62256;SDS011;48240;52.962;5.790;2023-03-14T14:56:06;5.70;;;1.30;;
62256;SDS011;48240;52.962;5.790;2023-03-14T14:58:34;4.65;;;0.90;;
62256;SDS011;48240;52.962;5.790;2023-03-14T15:03:44;5.40;;;1.00;;
62256;SDS011;48240;52.962;5.790;2023-03-14T15:06:12;3.28;;;0.88;;
62256;SDS011;48240;52.962;5.790;2023-03-14T15:08:38;4.32;;;1.17;;
62256;SDS011;48240;52.962;5.790;2023-03-14T15:11:04;5.15;;;1.10;;
62256;SDS011;48240;52.962;5.790;2023-03-14T15:13:30;7.10;;;1.10;;
62256;SDS011;48240;52.962;5.790;2023-03-14T15:15:56;5.93;;;1.02;;
62256;SDS011;48240;52.962;5.790;2023-03-14T15:18:24;4.43;;;0.98;;
62256;SDS011;48240;52.962;5.790;2023-03-14T15:20:50;3.40;;;0.88;;
62256;SDS011;48240;52.962;5.790;2023-03-14T15:23:18;5.07;;;0.95;;
62256;SDS011;48240;52.962;5.790;2023-03-14T15:25:44;6.75;;;1.15;;
62256;SDS011;48240;52.962;5.790;2023-03-14T15:28:19;3.70;;;1.00;;
62256;SDS011;48240;52.962;5.790;2023-03-14T15:30:46;5.63;;;0.88;;
62256;SDS011;48240;52.962;5.790;2023-03-14T15:33:13;4.80;;;1.25;;
62256;SDS011;48240;52.962;5.790;2023-03-14T15:35:39;6.78;;;1.38;;
62256;SDS011;48240;52.962;5.790;2023-03-14T15:38:10;6.05;;;1.20;;
62256;SDS011;48240;52.962;5.790;2023-03-14T15:40:36;5.97;;;1.27;;
62256;SDS011;48240;52.962;5.790;2023-03-14T15:43:03;6.10;;;1.30;;
62256;SDS011;48240;52.962;5.790;2023-03-14T15:45:29;7.00;;;1.63;;
62256;SDS011;48240;52.962;5.790;2023-03-14T15:47:55;6.25;;;1.05;;
62256;SDS011;48240;52.962;5.790;2023-03-14T15:50:22;6.20;;;1.40;;
62256;SDS011;48240;52.962;5.790;2023-03-14T15:52:50;7.75;;;1.10;;
62256;SDS011;48240;52.962;5.790;2023-03-14T15:55:16;6.50;;;1.40;;
62256;SDS011;48240;52.962;5.790;2023-03-14T15:57:43;4.72;;;1.15;;
62256;SDS011;48240;52.962;5.790;2023-03-14T16:00:14;5.10;;;1.30;;
62256;SDS011;48240;52.962;5.790;2023-03-14T16:02:41;8.63;;;1.98;;
62256;SDS011;48240;52.962;5.790;2023-03-14T16:05:08;4.43;;;1.25;;
62256;SDS011;48240;52.962;5.790;2023-03-14T16:07:34;6.40;;;1.65;;
62256;SDS011;48240;52.962;5.790;2023-03-14T16:10:00;5.57;;;1.52;;
62256;SDS011;48240;52.962;5.790;2023-03-14T16:12:26;5.68;;;1.92;;
62256;SDS011;48240;52.962;5.790;2023-03-14T16:14:53;5.93;;;2.30;;
62256;SDS011;48240;52.962;5.790;2023-03-14T16:17:19;9.48;;;3.85;;
62256;SDS011;48240;52.962;5.790;2023-03-14T16:19:45;8.98;;;3.95;;
62256;SDS011;48240;52.962;5.790;2023-03-14T16:22:11;10.13;;;4.13;;
62256;SDS011;48240;52.962;5.790;2023-03-14T16:24:38;7.90;;;3.80;;
62256;SDS011;48240;52.962;5.790;2023-03-14T16:27:04;9.63;;;4.35;;
62256;SDS011;48240;52.962;5.790;2023-03-14T16:29:30;10.82;;;4.00;;
62256;SDS011;48240;52.962;5.790;2023-03-14T16:31:56;12.48;;;4.05;;
62256;SDS011;48240;52.962;5.790;2023-03-14T16:34:22;9.57;;;3.60;;
62256;SDS011;48240;52.962;5.790;2023-03-14T16:36:48;13.38;;;4.03;;
62256;SDS011;48240;52.962;5.790;2023-03-14T16:39:18;10.73;;;3.65;;
62256;SDS011;48240;52.962;5.790;2023-03-14T16:41:44;10.68;;;3.92;;
62256;SDS011;48240;52.962;5.790;2023-03-14T16:44:10;12.02;;;4.82;;
62256;SDS011;48240;52.962;5.790;2023-03-14T16:46:37;15.55;;;7.28;;
62256;SDS011;48240;52.962;5.790;2023-03-14T16:49:03;13.35;;;4.97;;
62256;SDS011;48240;52.962;5.790;2023-03-14T16:51:29;13.40;;;5.22;;
62256;SDS011;48240;52.962;5.790;2023-03-14T16:53:56;11.30;;;4.85;;
62256;SDS011;48240;52.962;5.790;2023-03-14T16:56:22;16.92;;;4.78;;
62256;SDS011;48240;52.962;5.790;2023-03-14T16:58:48;17.58;;;5.25;;
62256;SDS011;48240;52.962;5.790;2023-03-14T17:01:16;10.38;;;4.70;;
62256;SDS011;48240;52.962;5.790;2023-03-14T17:03:46;21.60;;;11.40;;
62256;SDS011;48240;52.962;5.790;2023-03-14T17:06:14;27.30;;;11.20;;
62256;SDS011;48240;52.962;5.790;2023-03-14T17:08:40;21.27;;;8.48;;
62256;SDS011;48240;52.962;5.790;2023-03-14T17:11:07;21.88;;;7.68;;
62256;SDS011;48240;52.962;5.790;2023-03-14T17:13:33;18.73;;;7.45;;
62256;SDS011;48240;52.962;5.790;2023-03-14T17:16:00;14.10;;;7.38;;
62256;SDS011;48240;52.962;5.790;2023-03-14T17:18:27;18.23;;;6.50;;
62256;SDS011;48240;52.962;5.790;2023-03-14T17:20:54;12.93;;;6.25;;
62256;SDS011;48240;52.962;5.790;2023-03-14T17:23:20;10.82;;;6.15;;
62256;SDS011;48240;52.962;5.790;2023-03-14T17:25:47;17.27;;;6.15;;
62256;SDS011;48240;52.962;5.790;2023-03-14T17:28:18;14.13;;;5.55;;
62256;SDS011;48240;52.962;5.790;2023-03-14T17:30:45;15.43;;;6.70;;
62256;SDS011;48240;52.962;5.790;2023-03-14T17:33:11;10.93;;;5.65;;
62256;SDS011;48240;52.962;5.790;2023-03-14T17:35:37;12.73;;;5.20;;
62256;SDS011;48240;52.962;5.790;2023-03-14T17:38:03;12.45;;;5.45;;
62256;SDS011;48240;52.962;5.790;2023-03-14T17:40:30;12.05;;;5.30;;
62256;SDS011;48240;52.962;5.790;2023-03-14T17:42:56;10.55;;;5.22;;
62256;SDS011;48240;52.962;5.790;2023-03-14T17:45:22;10.55;;;5.25;;
62256;SDS011;48240;52.962;5.790;2023-03-14T17:47:48;9.80;;;4.57;;
62256;SDS011;48240;52.962;5.790;2023-03-14T17:50:14;10.05;;;4.55;;
62256;SDS011;48240;52.962;5.790;2023-03-14T17:52:41;15.52;;;4.82;;
62256;SDS011;48240;52.962;5.790;2023-03-14T17:55:07;12.50;;;4.97;;
62256;SDS011;48240;52.962;5.790;2023-03-14T17:57:35;12.43;;;4.32;;
62256;SDS011;48240;52.962;5.790;2023-03-14T18:00:05;9.95;;;4.45;;
62256;SDS011;48240;52.962;5.790;2023-03-14T18:02:35;10.02;;;3.70;;
62256;SDS011;48240;52.962;5.790;2023-03-14T18:05:01;11.00;;;3.90;;
62256;SDS011;48240;52.962;5.790;2023-03-14T18:07:28;9.25;;;3.72;;
62256;SDS011;48240;52.962;5.790;2023-03-14T18:09:54;9.98;;;3.72;;
62256;SDS011;48240;52.962;5.790;2023-03-14T18:12:20;13.15;;;4.03;;
62256;SDS011;48240;52.962;5.790;2023-03-14T18:14:46;7.20;;;3.38;;
62256;SDS011;48240;52.962;5.790;2023-03-14T18:17:13;11.07;;;3.50;;
62256;SDS011;48240;52.962;5.790;2023-03-14T18:19:39;9.88;;;3.67;;
62256;SDS011;48240;52.962;5.790;2023-03-14T18:22:06;8.73;;;3.50;;
62256;SDS011;48240;52.962;5.790;2023-03-14T18:24:32;8.98;;;3.70;;
62256;SDS011;48240;52.962;5.790;2023-03-14T18:26:58;10.48;;;3.70;;
62256;SDS011;48240;52.962;5.790;2023-03-14T18:29:24;7.07;;;3.05;;
62256;SDS011;48240;52.962;5.790;2023-03-14T18:31:50;7.63;;;3.08;;
62256;SDS011;48240;52.962;5.790;2023-03-14T18:34:17;9.90;;;3.42;;
62256;SDS011;48240;52.962;5.790;2023-03-14T18:36:43;8.75;;;2.88;;
62256;SDS011;48240;52.962;5.790;2023-03-14T18:39:09;10.65;;;3.38;;
62256;SDS011;48240;52.962;5.790;2023-03-14T18:41:35;8.25;;;3.33;;
62256;SDS011;48240;52.962;5.790;2023-03-14T18:44:02;8.02;;;3.00;;
62256;SDS011;48240;52.962;5.790;2023-03-14T18:46:28;7.82;;;3.00;;
62256;SDS011;48240;52.962;5.790;2023-03-14T18:48:55;6.07;;;2.70;;
62256;SDS011;48240;52.962;5.790;2023-03-14T18:51:22;13.13;;;2.83;;
62256;SDS011;48240;52.962;5.790;2023-03-14T18:53:50;6.50;;;2.85;;
62256;SDS011;48240;52.962;5.790;2023-03-14T18:56:16;7.93;;;2.60;;
62256;SDS011;48240;52.962;5.790;2023-03-14T18:58:42;6.90;;;2.80;;
62256;SDS011;48240;52.962;5.790;2023-03-14T19:01:08;12.15;;;3.10;;
62256;SDS011;48240;52.962;5.790;2023-03-14T19:03:36;7.38;;;2.47;;
62256;SDS011;48240;52.962;5.790;2023-03-14T19:06:06;7.28;;;2.63;;
62256;SDS011;48240;52.962;5.790;2023-03-14T19:08:33;9.93;;;2.80;;
62256;SDS011;48240;52.962;5.790;2023-03-14T19:11:00;8.77;;;2.70;;
62256;SDS011;48240;52.962;5.790;2023-03-14T19:13:28;7.80;;;2.58;;
62256;SDS011;48240;52.962;5.790;2023-03-14T19:15:55;8.50;;;2.38;;
62256;SDS011;48240;52.962;5.790;2023-03-14T19:18:22;7.95;;;2.28;;
62256;SDS011;48240;52.962;5.790;2023-03-14T19:23:41;4.43;;;1.77;;
62256;SDS011;48240;52.962;5.790;2023-03-14T19:26:12;10.80;;;2.10;;
62256;SDS011;48240;52.962;5.790;2023-03-14T19:28:40;10.82;;;2.45;;
62256;SDS011;48240;52.962;5.790;2023-03-14T19:31:06;5.25;;;2.22;;
62256;SDS011;48240;52.962;5.790;2023-03-14T19:33:32;5.93;;;2.58;;
62256;SDS011;48240;52.962;5.790;2023-03-14T19:35:58;5.43;;;1.85;;
62256;SDS011;48240;52.962;5.790;2023-03-14T19:38:26;6.78;;;1.92;;
62256;SDS011;48240;52.962;5.790;2023-03-14T19:40:57;4.65;;;1.80;;
62256;SDS011;48240;52.962;5.790;2023-03-14T19:43:24;5.15;;;1.98;;
62256;SDS011;48240;52.962;5.790;2023-03-14T19:45:50;6.97;;;1.88;;
62256;SDS011;48240;52.962;5.790;2023-03-14T19:48:16;5.68;;;1.83;;
62256;SDS011;48240;52.962;5.790;2023-03-14T19:50:42;7.45;;;2.25;;
62256;SDS011;48240;52.962;5.790;2023-03-14T19:53:09;4.18;;;1.55;;
62256;SDS011;48240;52.962;5.790;2023-03-14T19:55:35;5.43;;;2.17;;
62256;SDS011;48240;52.962;5.790;2023-03-14T19:58:02;7.32;;;2.13;;
62256;SDS011;48240;52.962;5.790;2023-03-14T20:00:29;4.47;;;1.65;;
62256;SDS011;48240;52.962;5.790;2023-03-14T20:02:55;4.85;;;1.58;;
62256;SDS011;48240;52.962;5.790;2023-03-14T20:05:22;3.58;;;1.60;;
62256;SDS011;48240;52.962;5.790;2023-03-14T20:07:48;6.75;;;1.50;;
62256;SDS011;48240;52.962;5.790;2023-03-14T20:10:16;4.40;;;1.42;;
62256;SDS011;48240;52.962;5.790;2023-03-14T20:12:44;4.20;;;1.80;;
62256;SDS011;48240;52.962;5.790;2023-03-14T20:15:10;53.03;;;15.90;;
62256;SDS011;48240;52.962;5.790;2023-03-14T20:17:42;19.27;;;5.40;;
62256;SDS011;48240;52.962;5.790;2023-03-14T20:20:08;17.38;;;5.05;;
62256;SDS011;48240;52.962;5.790;2023-03-14T20:22:35;12.40;;;3.50;;
62256;SDS011;48240;52.962;5.790;2023-03-14T20:25:06;9.13;;;3.03;;
62256;SDS011;48240;52.962;5.790;2023-03-14T20:27:33;9.65;;;2.97;;
62256;SDS011;48240;52.962;5.790;2023-03-14T20:29:59;9.00;;;2.67;;
62256;SDS011;48240;52.962;5.790;2023-03-14T20:32:27;12.65;;;2.83;;
62256;SDS011;48240;52.962;5.790;2023-03-14T20:34:54;8.18;;;2.63;;
62256;SDS011;48240;52.962;5.790;2023-03-14T20:37:20;11.80;;;2.65;;
62256;SDS011;48240;52.962;5.790;2023-03-14T20:39:47;9.35;;;2.63;;
62256;SDS011;48240;52.962;5.790;2023-03-14T20:42:13;6.55;;;2.05;;
62256;SDS011;48240;52.962;5.790;2023-03-14T20:44:40;7.13;;;2.10;;